Etusivu
METAR-TAF:

METAR-TAF

Lentoasemat :

Boscobel Airport

Boscobel, Wisconsin, Yhdysvallat

Leveyspiiri: 43-09-22N, Pituuspiiri: 090-40-39W, korkeus merenpinnasta: 205 m

Tämänhetkinen sää

Tämä raportti tehtiin 34 minuuttia sitten, kello 10.19 UTC
Tuuli 8 kn lännestä/luoteesta puuskistuen 17 kn:hen
Lämpötila 0°C
Kosteus 80%
Ilmanpaine 1016 hPa
Näkyvyys: 16.1 km
Hajonneita pilviä 1600 ft:n korkeudessa
Pilvistä 2200 ft:n korkeudessa

METAR: KOVS 181019Z AUTO 29008G17KT 10SM BKN016 OVC022 00/M03 A2999 RMK AO2 T00001033

Aika: 04:53 (10:53 UTC)


TAF: puuttuu

Säähavainnot ja -ennusteet yli 4000 lentoasemalta (METAR- ja TAF-raportit).

Käytössä olevat sääasemat on merkitty karttaan keltaisilla ja punaisilla pisteillä.

Aseta hiiri pisteen päälle nähdäksesi sääaseman nimen.

Klikkaa sitten nähdäksesi säähavainnot ja -ennusteet.

Kartan vaihtaminen: klikkaa mustalla rastilla varustettuja vihreitä pisteitä, niin voit zoomata sisään; viivalla varustettua vihreää pistettä, niin voit zoomata ulos tai vihreitä nuolia, niin pääset viereisille kartoille.


METAR-TAF: